Ce_breeze — ELSQ7 — position and weather

sailwx.info

Track history (hours):
 
Tides and Currents Weather Stations Pressure Air Temp Water Temp Dewpoint Dewpoint Depression Visibility Wind Speed Wind Dir Waves Ship Positions

Ce_breeze

Last reported at 2016-Feb-14 03:33 UTC. Time now 2016-Feb-14 12:44 UTC.
Position N 44°28' E 037°29'.

Length 240 m; draft 12.7 m.

Type: Ship (hazmat cat B). MMSI: 636010400.

Date/timePositionNaut miles runAvg speedWind from/ knotsBaromVisibWave heightAir tempDewpointWater temp
2016-Feb-14 03:33N 44°28' E 037°29'1111.1
2016-Feb-14 02:33N 44°33' E 037°43'9 8.7
2016-Feb-14 01:33N 44°40' E 037°50'2 2.0
2016-Feb-14 00:33N 44°42' E 037°50'0 0.0
2016-Feb-13 23:31N 44°42' E 037°50'0 0.0
2016-Feb-13 22:31N 44°42' E 037°50'0 0.0
2016-Feb-13 21:31N 44°42' E 037°50'0 0.0
2016-Feb-13 20:31N 44°42' E 037°50'0 0.0
2016-Feb-13 19:31N 44°42' E 037°50'0 0.0
2016-Feb-13 18:31N 44°42' E 037°50'0 0.0
2016-Feb-13 17:31N 44°42' E 037°50'0 0.0
2016-Feb-13 16:31N 44°42' E 037°50'0 0.0
2016-Feb-13 15:31N 44°42' E 037°50'0 0.0
2016-Feb-13 14:31N 44°42' E 037°50'0 0.0
2016-Feb-13 13:31N 44°42' E 037°50'0 0.0
2016-Feb-13 12:31N 44°42' E 037°50'0 0.0
2016-Feb-13 11:31N 44°42' E 037°50'0 0.0
2016-Feb-13 09:04N 44°42' E 037°50'0 0.0
2016-Feb-13 08:31N 44°42' E 037°50'0 0.0
2016-Feb-13 07:31N 44°42' E 037°50'0 0.0
2016-Feb-13 06:25N 44°42' E 037°50'0 0.0
2016-Feb-13 05:31N 44°42' E 037°50'0 0.0
2016-Feb-13 04:31N 44°42' E 037°50'0 0.0
2016-Feb-13 03:31N 44°42' E 037°50'0 0.0
2016-Feb-13 02:31N 44°42' E 037°50'0 0.0
2016-Feb-13 01:31N 44°42' E 037°50'0 0.0
2016-Feb-13 00:31N 44°42' E 037°50'0 0.0
2016-Feb-12 23:31N 44°42' E 037°50'0 0.0
2016-Feb-12 22:31N 44°42' E 037°50'0 0.0
2016-Feb-12 21:31N 44°42' E 037°50'0 0.0
2016-Feb-12 20:31N 44°42' E 037°50'0 0.0
2016-Feb-12 19:31N 44°42' E 037°50'0 0.0
2016-Feb-12 18:31N 44°42' E 037°50'0 0.0
2016-Feb-12 17:31N 44°42' E 037°50'0 0.0
2016-Feb-12 16:31N 44°42' E 037°50'0 0.0
2016-Feb-12 15:31N 44°42' E 037°50'1 1.4
2016-Feb-12 14:33N 44°41' E 037°50'6 5.9
2016-Feb-12 13:33N 44°35' E 037°50'6 6.4
2016-Feb-12 12:33N 44°29' E 037°47'7 6.9
2016-Feb-12 11:33N 44°24' E 037°42'1 1.1
2016-Feb-12 10:33N 44°23' E 037°43'1 0.8
2016-Feb-12 09:33N 44°22' E 037°43'0 0.5
2016-Feb-12 08:33N 44°22' E 037°44'1 0.6
2016-Feb-12 07:33N 44°21' E 037°44'1 1.4
2016-Feb-12 06:33N 44°20' E 037°44'7 7.2
2016-Feb-12 05:33N 44°13' E 037°41'15 1.2
2016-Feb-11 16:12N 43°58' E 037°41'14 2.1
2016-Feb-11 09:32N 44°07' E 037°27'17 8.2
2016-Feb-11 07:24N 44°13' E 037°04'13 0.5
2016-Feb-10 06:33N 44°12' E 037°22'12 0.4
2016-Feb-08 21:33N 44°21' E 037°32'2 1.2
2016-Feb-08 19:33N 44°24' E 037°33'1 1.0
2016-Feb-08 18:30N 44°23' E 037°34'1 1.1
2016-Feb-08 17:33N 44°22' E 037°35'1 1.0
2016-Feb-08 16:33N 44°21' E 037°36'1 1.0
2016-Feb-08 15:30N 44°21' E 037°38'1 1.1
2016-Feb-08 14:33N 44°20' E 037°39'1 1.1
2016-Feb-08 13:31N 44°20' E 037°40'6 6.2
2016-Feb-08 12:33N 44°18' E 037°33'8 0.3
2016-Feb-07 13:14N 44°10' E 037°30'1 1.6
2016-Feb-07 12:33N 44°12' E 037°30'5 4.8
2016-Feb-07 11:29N 44°15' E 037°24'9 9.1
2016-Feb-07 10:30N 44°18' E 037°12'347 9.1
2016-Feb-05 20:33N 44°05' E 029°09'10 9.8
2016-Feb-05 19:33N 44°05' E 028°56'5 4.8
2016-Feb-05 18:31N 44°07' E 028°49'0 0.1
2016-Feb-05 17:31N 44°07' E 028°49'0 0.0
2016-Feb-05 16:31N 44°07' E 028°49'0 0.0
2016-Feb-05 15:31N 44°07' E 028°49'0 0.0
2016-Feb-05 14:31N 44°07' E 028°49'0 0.1
2016-Feb-05 13:22N 44°07' E 028°49'0 0.1
2016-Feb-05 12:25N 44°07' E 028°49'0 0.0
2016-Feb-05 11:25N 44°07' E 028°49'0 0.1
2016-Feb-05 10:25N 44°07' E 028°49'0 0.0
2016-Feb-05 09:28N 44°07' E 028°49'0 0.0
2016-Feb-05 08:28N 44°07' E 028°49'0 0.0
2016-Feb-05 07:25N 44°07' E 028°49'0 0.0
2016-Feb-05 06:31N 44°07' E 028°49'0 0.1
2016-Feb-05 05:28N 44°07' E 028°49'0 0.0
2016-Feb-05 04:31N 44°07' E 028°49'0 0.0
2016-Feb-05 03:31N 44°07' E 028°49'0 0.0
2016-Feb-05 02:31N 44°07' E 028°49'0 0.0
2016-Feb-05 01:31N 44°07' E 028°49'0 0.1
2016-Feb-05 00:31N 44°07' E 028°49'0 0.0
2016-Feb-04 23:22N 44°07' E 028°49'0 0.1
2016-Feb-04 22:22N 44°07' E 028°49'0 0.0
2016-Feb-04 21:25N 44°07' E 028°49'0 0.1
2016-Feb-04 20:25N 44°07' E 028°49'0 0.0
2016-Feb-04 19:25N 44°07' E 028°49'0 0.0
2016-Feb-04 18:28N 44°07' E 028°49'0 0.0
2016-Feb-04 17:28N 44°07' E 028°49'0 0.0
2016-Feb-04 16:31N 44°07' E 028°49'0 0.1
2016-Feb-04 15:31N 44°07' E 028°49'0 0.0
2016-Feb-04 14:31N 44°07' E 028°49'0 0.0
2016-Feb-04 13:31N 44°07' E 028°49'0 0.1
2016-Feb-04 12:19N 44°07' E 028°49'0 0.1
2016-Feb-04 11:31N 44°07' E 028°49'0 0.0
2016-Feb-04 10:31N 44°07' E 028°49'0 0.2
2016-Feb-04 09:22N 44°07' E 028°49'0 0.1
2016-Feb-04 08:22N 44°07' E 028°49'0 0.0
2016-Feb-04 07:25N 44°07' E 028°49'0 0.0
2016-Feb-04 06:29N 44°07' E 028°49'0 0.0
2016-Feb-04 05:29N 44°07' E 028°49'0 0.0
2016-Feb-04 04:32N 44°07' E 028°49'  
Track history (hours):
 
Tides and Currents Weather Stations Pressure Air Temp Water Temp Dewpoint Dewpoint Depression Visibility Wind Speed Wind Dir Waves Ship Positions

Ce_breeze

Last reported at 2016-Feb-14 03:33 UTC. Time now 2016-Feb-14 12:44 UTC.
Position N 44°28' E 037°29'.

Length 240 m; draft 12.7 m.

Type: Ship (hazmat cat B). MMSI: 636010400.

Date/timePositionNaut miles runAvg speedWind from/ knotsBaromVisibWave heightAir tempDewpointWater temp
2016-Feb-14 03:33N 44°28' E 037°29'1111.1
2016-Feb-14 02:33N 44°33' E 037°43'9 8.7
2016-Feb-14 01:33N 44°40' E 037°50'2 2.0
2016-Feb-14 00:33N 44°42' E 037°50'0 0.0
2016-Feb-13 23:31N 44°42' E 037°50'0 0.0
2016-Feb-13 22:31N 44°42' E 037°50'0 0.0
2016-Feb-13 21:31N 44°42' E 037°50'0 0.0
2016-Feb-13 20:31N 44°42' E 037°50'0 0.0
2016-Feb-13 19:31N 44°42' E 037°50'0 0.0
2016-Feb-13 18:31N 44°42' E 037°50'0 0.0
2016-Feb-13 17:31N 44°42' E 037°50'0 0.0
2016-Feb-13 16:31N 44°42' E 037°50'0 0.0
2016-Feb-13 15:31N 44°42' E 037°50'0 0.0
2016-Feb-13 14:31N 44°42' E 037°50'0 0.0
2016-Feb-13 13:31N 44°42' E 037°50'0 0.0
2016-Feb-13 12:31N 44°42' E 037°50'0 0.0
2016-Feb-13 11:31N 44°42' E 037°50'0 0.0
2016-Feb-13 09:04N 44°42' E 037°50'0 0.0
2016-Feb-13 08:31N 44°42' E 037°50'0 0.0
2016-Feb-13 07:31N 44°42' E 037°50'0 0.0
2016-Feb-13 06:25N 44°42' E 037°50'0 0.0
2016-Feb-13 05:31N 44°42' E 037°50'0 0.0
2016-Feb-13 04:31N 44°42' E 037°50'0 0.0
2016-Feb-13 03:31N 44°42' E 037°50'0 0.0
2016-Feb-13 02:31N 44°42' E 037°50'0 0.0
2016-Feb-13 01:31N 44°42' E 037°50'0 0.0
2016-Feb-13 00:31N 44°42' E 037°50'0 0.0
2016-Feb-12 23:31N 44°42' E 037°50'0 0.0
2016-Feb-12 22:31N 44°42' E 037°50'0 0.0
2016-Feb-12 21:31N 44°42' E 037°50'0 0.0
2016-Feb-12 20:31N 44°42' E 037°50'0 0.0
2016-Feb-12 19:31N 44°42' E 037°50'0 0.0
2016-Feb-12 18:31N 44°42' E 037°50'0 0.0
2016-Feb-12 17:31N 44°42' E 037°50'0 0.0
2016-Feb-12 16:31N 44°42' E 037°50'0 0.0
2016-Feb-12 15:31N 44°42' E 037°50'1 1.4
2016-Feb-12 14:33N 44°41' E 037°50'6 5.9
2016-Feb-12 13:33N 44°35' E 037°50'6 6.4
2016-Feb-12 12:33N 44°29' E 037°47'7 6.9
2016-Feb-12 11:33N 44°24' E 037°42'1 1.1
2016-Feb-12 10:33N 44°23' E 037°43'1 0.8
2016-Feb-12 09:33N 44°22' E 037°43'0 0.5
2016-Feb-12 08:33N 44°22' E 037°44'1 0.6
2016-Feb-12 07:33N 44°21' E 037°44'1 1.4
2016-Feb-12 06:33N 44°20' E 037°44'7 7.2
2016-Feb-12 05:33N 44°13' E 037°41'15 1.2
2016-Feb-11 16:12N 43°58' E 037°41'14 2.1
2016-Feb-11 09:32N 44°07' E 037°27'17 8.2
2016-Feb-11 07:24N 44°13' E 037°04'13 0.5
2016-Feb-10 06:33N 44°12' E 037°22'12 0.4
2016-Feb-08 21:33N 44°21' E 037°32'2 1.2
2016-Feb-08 19:33N 44°24' E 037°33'1 1.0
2016-Feb-08 18:30N 44°23' E 037°34'1 1.1
2016-Feb-08 17:33N 44°22' E 037°35'1 1.0
2016-Feb-08 16:33N 44°21' E 037°36'1 1.0
2016-Feb-08 15:30N 44°21' E 037°38'1 1.1
2016-Feb-08 14:33N 44°20' E 037°39'1 1.1
2016-Feb-08 13:31N 44°20' E 037°40'6 6.2
2016-Feb-08 12:33N 44°18' E 037°33'8 0.3
2016-Feb-07 13:14N 44°10' E 037°30'1 1.6
2016-Feb-07 12:33N 44°12' E 037°30'5 4.8
2016-Feb-07 11:29N 44°15' E 037°24'9 9.1
2016-Feb-07 10:30N 44°18' E 037°12'347 9.1
2016-Feb-05 20:33N 44°05' E 029°09'10 9.8
2016-Feb-05 19:33N 44°05' E 028°56'5 4.8
2016-Feb-05 18:31N 44°07' E 028°49'0 0.1
2016-Feb-05 17:31N 44°07' E 028°49'0 0.0
2016-Feb-05 16:31N 44°07' E 028°49'0 0.0
2016-Feb-05 15:31N 44°07' E 028°49'0 0.0
2016-Feb-05 14:31N 44°07' E 028°49'0 0.1
2016-Feb-05 13:22N 44°07' E 028°49'0 0.1
2016-Feb-05 12:25N 44°07' E 028°49'0 0.0
2016-Feb-05 11:25N 44°07' E 028°49'0 0.1
2016-Feb-05 10:25N 44°07' E 028°49'0 0.0
2016-Feb-05 09:28N 44°07' E 028°49'0 0.0
2016-Feb-05 08:28N 44°07' E 028°49'0 0.0
2016-Feb-05 07:25N 44°07' E 028°49'0 0.0
2016-Feb-05 06:31N 44°07' E 028°49'0 0.1
2016-Feb-05 05:28N 44°07' E 028°49'0 0.0
2016-Feb-05 04:31N 44°07' E 028°49'0 0.0
2016-Feb-05 03:31N 44°07' E 028°49'0 0.0
2016-Feb-05 02:31N 44°07' E 028°49'0 0.0
2016-Feb-05 01:31N 44°07' E 028°49'0 0.1
2016-Feb-05 00:31N 44°07' E 028°49'0 0.0
2016-Feb-04 23:22N 44°07' E 028°49'0 0.1
2016-Feb-04 22:22N 44°07' E 028°49'0 0.0
2016-Feb-04 21:25N 44°07' E 028°49'0 0.1
2016-Feb-04 20:25N 44°07' E 028°49'0 0.0
2016-Feb-04 19:25N 44°07' E 028°49'0 0.0
2016-Feb-04 18:28N 44°07' E 028°49'0 0.0
2016-Feb-04 17:28N 44°07' E 028°49'0 0.0
2016-Feb-04 16:31N 44°07' E 028°49'0 0.1
2016-Feb-04 15:31N 44°07' E 028°49'0 0.0
2016-Feb-04 14:31N 44°07' E 028°49'0 0.0
2016-Feb-04 13:31N 44°07' E 028°49'0 0.1
2016-Feb-04 12:19N 44°07' E 028°49'0 0.1
2016-Feb-04 11:31N 44°07' E 028°49'0 0.0
2016-Feb-04 10:31N 44°07' E 028°49'0 0.2
2016-Feb-04 09:22N 44°07' E 028°49'0 0.1
2016-Feb-04 08:22N 44°07' E 028°49'0 0.0
2016-Feb-04 07:25N 44°07' E 028°49'0 0.0
2016-Feb-04 06:29N 44°07' E 028°49'0 0.0
2016-Feb-04 05:29N 44°07' E 028°49'0 0.0
2016-Feb-04 04:32N 44°07' E 028°49'  

Dump ship's entire track history